createdAt,value
2018-12-03T00:00:12.776Z,21.33
2018-12-03T00:01:12.767Z,21.35
2018-12-03T00:02:12.756Z,21.30
2018-12-03T00:03:12.742Z,21.28
2018-12-03T00:04:12.735Z,21.25
2018-12-03T00:05:12.728Z,21.32
2018-12-03T00:06:12.719Z,21.32
2018-12-03T00:07:12.713Z,21.26
2018-12-03T00:08:12.704Z,21.29
2018-12-03T00:09:12.696Z,21.40
2018-12-03T00:10:12.678Z,21.38
2018-12-03T00:11:12.669Z,21.33
2018-12-03T00:12:12.659Z,21.29
2018-12-03T00:13:12.652Z,21.26
2018-12-03T00:14:12.640Z,21.29
2018-12-03T00:15:12.631Z,21.26
2018-12-03T00:16:12.623Z,21.23
2018-12-03T00:17:12.609Z,21.26
2018-12-03T00:18:12.603Z,21.28
2018-12-03T00:19:12.593Z,21.29
2018-12-03T00:20:12.583Z,21.22
2018-12-03T00:21:12.567Z,21.28
2018-12-03T00:22:12.562Z,21.29
2018-12-03T00:23:12.559Z,21.28
2018-12-03T00:24:12.543Z,21.29
2018-12-03T00:25:12.532Z,21.23
2018-12-03T00:26:12.524Z,21.30
2018-12-03T00:27:12.518Z,21.32
2018-12-03T00:28:12.512Z,21.29
2018-12-03T00:29:12.500Z,21.28
2018-12-03T00:30:12.486Z,21.29
2018-12-03T00:31:12.476Z,21.28
2018-12-03T00:32:12.463Z,21.22
2018-12-03T00:33:12.457Z,21.22
2018-12-03T00:34:12.447Z,21.25
2018-12-03T00:35:12.438Z,21.19
2018-12-03T00:36:12.428Z,21.23
2018-12-03T00:37:12.421Z,21.25
2018-12-03T00:38:12.410Z,21.19
2018-12-03T00:39:12.399Z,21.20
2018-12-03T00:40:12.389Z,21.28
2018-12-03T00:41:12.381Z,21.25
2018-12-03T00:42:12.373Z,21.17
2018-12-03T00:43:12.362Z,21.20
2018-12-03T00:44:12.351Z,21.22
2018-12-03T00:45:12.341Z,21.28
2018-12-03T00:46:12.331Z,21.25
2018-12-03T00:47:12.321Z,21.25
2018-12-03T00:48:12.311Z,21.23
2018-12-03T00:49:12.305Z,21.26
2018-12-03T00:50:12.291Z,21.20
2018-12-03T00:51:12.280Z,21.28
2018-12-03T00:52:12.274Z,21.26
2018-12-03T00:53:12.265Z,21.19
2018-12-03T00:54:12.253Z,21.20
2018-12-03T00:55:12.244Z,21.17
2018-12-03T00:56:12.233Z,21.23
2018-12-03T00:57:12.224Z,21.19
2018-12-03T00:58:12.215Z,21.20
2018-12-03T00:59:12.205Z,21.19
2018-12-03T01:00:12.196Z,21.20
2018-12-03T01:01:12.189Z,21.19
2018-12-03T01:02:12.174Z,21.19
2018-12-03T01:03:12.170Z,21.25
2018-12-03T01:04:12.170Z,21.20
2018-12-03T01:05:12.148Z,21.19
2018-12-03T01:06:12.137Z,21.22
2018-12-03T01:07:12.130Z,21.20
2018-12-03T01:08:12.114Z,21.15
2018-12-03T01:09:12.108Z,21.15
2018-12-03T01:10:12.099Z,21.19
2018-12-03T01:11:12.087Z,21.22
2018-12-03T01:12:12.079Z,21.15
2018-12-03T01:13:12.067Z,21.14
2018-12-03T01:14:12.060Z,21.14
2018-12-03T01:15:12.053Z,21.20
2018-12-03T01:16:12.044Z,21.20
2018-12-03T01:17:12.031Z,21.14
2018-12-03T01:18:12.015Z,21.13
2018-12-03T01:19:12.010Z,21.17
2018-12-03T01:20:12.010Z,21.17
2018-12-03T01:21:11.994Z,21.14
2018-12-03T01:22:11.983Z,21.13
2018-12-03T01:23:11.973Z,21.14
2018-12-03T01:24:11.963Z,21.10
2018-12-03T01:25:11.951Z,21.14
2018-12-03T01:26:11.950Z,21.17
2018-12-03T01:27:11.937Z,21.15
2018-12-03T01:28:11.920Z,21.15
2018-12-03T01:29:11.913Z,21.13
2018-12-03T01:30:11.908Z,21.14
2018-12-03T01:31:11.894Z,21.13
2018-12-03T01:32:11.886Z,21.11
2018-12-03T01:33:11.876Z,21.15
2018-12-03T01:34:11.866Z,21.13
2018-12-03T01:35:11.859Z,21.11
2018-12-03T01:36:11.854Z,21.11
2018-12-03T01:37:11.833Z,21.13
2018-12-03T01:38:11.825Z,21.11
2018-12-03T01:39:11.816Z,21.10
2018-12-03T01:40:11.813Z,21.13
2018-12-03T01:41:11.797Z,21.04
2018-12-03T01:42:11.790Z,21.11
2018-12-03T01:43:11.778Z,21.01
2018-12-03T01:44:11.769Z,21.11
2018-12-03T01:45:11.760Z,21.08
2018-12-03T01:46:11.748Z,21.08
2018-12-03T01:47:11.741Z,21.11
2018-12-03T01:48:11.735Z,21.05
2018-12-03T01:49:11.718Z,21.13
2018-12-03T01:50:11.711Z,21.03
2018-12-03T01:51:11.701Z,21.05
2018-12-03T01:52:11.691Z,21.11
2018-12-03T01:53:11.680Z,21.07
2018-12-03T01:54:11.675Z,21.03
2018-12-03T01:55:11.667Z,21.03
2018-12-03T01:56:11.656Z,21.05
2018-12-03T01:57:11.645Z,21.04
2018-12-03T01:58:11.633Z,21.07
2018-12-03T01:59:11.624Z,21.11
2018-12-03T02:00:11.619Z,21.04
2018-12-03T02:01:11.614Z,21.08
2018-12-03T02:02:11.596Z,21.03
2018-12-03T02:03:11.586Z,21.01
2018-12-03T02:04:11.576Z,21.04
2018-12-03T02:05:11.565Z,21.04
2018-12-03T02:06:11.561Z,21.05
2018-12-03T02:07:11.546Z,21.07
2018-12-03T02:08:11.537Z,21.07
2018-12-03T02:09:11.530Z,21.01
2018-12-03T02:10:11.517Z,21.05
2018-12-03T02:11:11.508Z,21.11
2018-12-03T02:12:11.499Z,21.03
2018-12-03T02:13:11.486Z,21.00
2018-12-03T02:14:11.480Z,21.08
2018-12-03T02:15:11.470Z,21.03
2018-12-03T02:16:11.461Z,21.04
2018-12-03T02:17:11.448Z,21.04
2018-12-03T02:18:11.439Z,21.05
2018-12-03T02:19:11.428Z,21.04
2018-12-03T02:20:11.421Z,21.05
2018-12-03T02:21:11.409Z,21.07
2018-12-03T02:22:11.399Z,21.04
2018-12-03T02:23:11.389Z,21.01
2018-12-03T02:24:11.396Z,21.03
2018-12-03T02:25:11.370Z,21.05
2018-12-03T02:26:11.361Z,21.07
2018-12-03T02:27:11.351Z,21.04
2018-12-03T02:28:11.343Z,21.07
2018-12-03T02:29:11.331Z,21.05
2018-12-03T02:30:11.324Z,21.04
2018-12-03T02:31:11.315Z,21.07
2018-12-03T02:32:11.301Z,21.04
2018-12-03T02:33:11.293Z,21.10
2018-12-03T02:34:11.284Z,21.11
2018-12-03T02:35:11.275Z,21.05
2018-12-03T02:36:11.263Z,21.07
2018-12-03T02:37:11.255Z,21.07
2018-12-03T02:38:11.246Z,21.04
2018-12-03T02:39:11.235Z,20.98
2018-12-03T02:40:11.238Z,21.03
2018-12-03T02:41:11.214Z,21.04
2018-12-03T02:42:11.207Z,21.05
2018-12-03T02:43:11.195Z,21.01
2018-12-03T02:44:11.188Z,21.04
2018-12-03T02:45:11.176Z,21.05
2018-12-03T02:46:11.169Z,21.04
2018-12-03T02:47:11.158Z,21.04
2018-12-03T02:48:11.147Z,21.05
2018-12-03T02:49:11.138Z,21.05
2018-12-03T02:50:11.132Z,21.01
2018-12-03T02:51:11.118Z,20.98
2018-12-03T02:52:11.105Z,21.05
2018-12-03T02:53:11.105Z,21.07
2018-12-03T02:54:11.088Z,21.04
2018-12-03T02:55:11.094Z,21.04
2018-12-03T02:56:11.069Z,21.03
2018-12-03T02:57:11.059Z,21.08
2018-12-03T02:58:11.049Z,21.08
2018-12-03T02:59:11.042Z,21.04
2018-12-03T03:00:11.080Z,21.07
2018-12-03T03:01:11.024Z,21.03
2018-12-03T03:02:11.012Z,21.00
2018-12-03T03:03:11.005Z,21.00
2018-12-03T03:04:10.991Z,20.98
2018-12-03T03:05:10.982Z,20.92
2018-12-03T03:06:10.972Z,20.98
2018-12-03T03:07:10.961Z,21.00
2018-12-03T03:08:10.967Z,20.96
2018-12-03T03:09:10.951Z,20.95
2018-12-03T03:10:10.931Z,20.96
2018-12-03T03:11:10.923Z,21.01
2018-12-03T03:12:10.916Z,20.96
2018-12-03T03:13:10.905Z,20.95
2018-12-03T03:14:10.894Z,21.00
2018-12-03T03:15:10.905Z,21.04
2018-12-03T03:16:10.875Z,21.04
2018-12-03T03:17:10.861Z,21.01
2018-12-03T03:18:10.856Z,20.98
2018-12-03T03:19:10.851Z,20.92
2018-12-03T03:20:10.836Z,20.98
2018-12-03T03:21:10.825Z,21.00
2018-12-03T03:22:10.816Z,20.95
2018-12-03T03:23:10.809Z,20.88
2018-12-03T03:24:10.800Z,20.85
2018-12-03T03:25:10.787Z,20.83
2018-12-03T03:26:10.777Z,20.90
2018-12-03T03:27:10.767Z,20.93
2018-12-03T03:28:10.771Z,21.00
2018-12-03T03:29:10.753Z,20.90
2018-12-03T03:30:10.740Z,20.89
2018-12-03T03:31:10.730Z,20.98
2018-12-03T03:32:10.723Z,20.96
2018-12-03T03:33:10.710Z,20.95
2018-12-03T03:34:10.700Z,20.95
2018-12-03T03:35:10.689Z,20.98
2018-12-03T03:36:10.681Z,20.96
2018-12-03T03:37:10.668Z,20.98
2018-12-03T03:38:10.659Z,21.00
2018-12-03T03:39:10.652Z,20.88
2018-12-03T03:40:10.643Z,20.89
2018-12-03T03:41:10.631Z,20.95
2018-12-03T03:42:10.621Z,20.89
2018-12-03T03:43:10.612Z,20.90
2018-12-03T03:44:10.602Z,20.98
2018-12-03T03:45:10.592Z,20.90
2018-12-03T03:46:10.589Z,20.92
2018-12-03T03:47:10.573Z,20.93
2018-12-03T03:48:10.564Z,21.00
2018-12-03T03:49:10.556Z,20.98
2018-12-03T03:50:10.563Z,20.89
2018-12-03T03:51:10.532Z,20.92
2018-12-03T03:52:10.528Z,20.88
2018-12-03T03:53:10.517Z,20.96
2018-12-03T03:54:10.503Z,20.88
2018-12-03T03:55:10.504Z,20.93
2018-12-03T03:56:10.485Z,21.00
2018-12-03T03:57:10.472Z,21.04
2018-12-03T03:58:10.463Z,20.98
2018-12-03T03:59:10.460Z,21.01
2018-12-03T04:00:10.452Z,20.95
2018-12-03T04:01:10.436Z,20.98
2018-12-03T04:02:10.425Z,21.07
2018-12-03T04:03:10.416Z,20.98
2018-12-03T04:04:10.407Z,21.00
2018-12-03T04:05:10.396Z,21.07
2018-12-03T04:06:10.387Z,21.07
2018-12-03T04:07:10.376Z,21.04
2018-12-03T04:08:10.372Z,21.04
2018-12-03T04:09:10.357Z,21.03
2018-12-03T04:10:10.349Z,20.98
2018-12-03T04:11:10.344Z,21.08
2018-12-03T04:12:10.337Z,21.10
2018-12-03T04:13:10.319Z,21.07
2018-12-03T04:14:10.308Z,21.04
2018-12-03T04:15:10.302Z,21.13
2018-12-03T04:16:10.292Z,21.15
2018-12-03T04:17:10.283Z,21.19
2018-12-03T04:18:10.270Z,21.19
2018-12-03T04:19:10.258Z,21.15
2018-12-03T04:20:10.250Z,21.17
2018-12-03T04:21:10.241Z,21.19
2018-12-03T04:22:10.231Z,21.20
2018-12-03T04:23:10.220Z,21.20
2018-12-03T04:24:10.217Z,21.17
2018-12-03T04:25:10.215Z,21.20
2018-12-03T04:26:10.188Z,21.25
2018-12-03T04:27:10.183Z,21.20
2018-12-03T04:28:10.172Z,21.23
2018-12-03T04:29:10.162Z,21.22
2018-12-03T04:30:10.153Z,21.15
2018-12-03T04:31:10.151Z,21.26
2018-12-03T04:32:10.133Z,21.20
2018-12-03T04:33:10.136Z,21.25
2018-12-03T04:34:10.114Z,21.28
2018-12-03T04:35:10.103Z,21.25
2018-12-03T04:36:10.096Z,21.29
2018-12-03T04:37:10.084Z,21.26
2018-12-03T04:38:10.075Z,21.29
2018-12-03T04:39:10.073Z,21.29
2018-12-03T04:40:10.055Z,21.29
2018-12-03T04:41:10.047Z,21.33
2018-12-03T04:42:10.034Z,21.28
2018-12-03T04:43:10.026Z,21.29
2018-12-03T04:44:10.026Z,21.26
2018-12-03T04:45:10.021Z,21.30
2018-12-03T04:46:09.999Z,21.29
2018-12-03T04:47:09.989Z,21.33
2018-12-03T04:48:09.979Z,21.28
2018-12-03T04:49:09.975Z,21.23
2018-12-03T04:50:09.962Z,21.28
2018-12-03T04:51:09.954Z,21.26
2018-12-03T04:52:09.941Z,21.29
2018-12-03T04:53:09.930Z,21.23
2018-12-03T04:54:09.928Z,21.23
2018-12-03T04:55:09.914Z,21.33
2018-12-03T04:56:09.896Z,21.35
2018-12-03T04:57:09.891Z,21.30
2018-12-03T04:58:09.881Z,21.29
2018-12-03T04:59:09.875Z,21.25
2018-12-03T05:00:09.866Z,21.28
2018-12-03T05:01:09.856Z,21.40
2018-12-03T05:02:09.836Z,21.35
2018-12-03T05:03:09.840Z,21.29
2018-12-03T05:04:09.823Z,21.22
2018-12-03T05:05:09.814Z,21.07
2018-12-03T05:06:09.811Z,20.90
2018-12-03T05:07:09.794Z,20.85
2018-12-03T05:08:09.785Z,20.67
2018-12-03T05:09:09.772Z,20.77
2018-12-03T05:10:09.766Z,20.68
2018-12-03T05:11:09.756Z,20.73
2018-12-03T05:12:09.747Z,20.71
2018-12-03T05:13:09.884Z,20.71
2018-12-03T05:14:09.729Z,20.78
2018-12-03T05:15:09.718Z,20.83
2018-12-03T05:16:09.714Z,20.83
2018-12-03T05:17:09.695Z,20.83
2018-12-03T05:18:09.688Z,20.90
2018-12-03T05:19:09.678Z,20.88
2018-12-03T05:20:09.669Z,20.90
2018-12-03T05:21:09.660Z,20.88
2018-12-03T05:22:09.646Z,20.96
2018-12-03T05:23:09.640Z,21.03
2018-12-03T05:24:09.628Z,21.10
2018-12-03T05:25:09.618Z,20.98
2018-12-03T05:26:09.615Z,21.07
2018-12-03T05:27:09.611Z,21.10
2018-12-03T05:28:09.604Z,21.10
2018-12-03T05:29:09.581Z,21.04
2018-12-03T05:30:09.571Z,21.10
2018-12-03T05:31:09.560Z,21.15
2018-12-03T05:32:09.553Z,21.14
2018-12-03T05:33:09.541Z,21.15
2018-12-03T05:34:09.532Z,21.17
2018-12-03T05:35:09.520Z,21.13
2018-12-03T05:36:09.515Z,21.23
2018-12-03T05:37:09.513Z,21.19
2018-12-03T05:38:09.491Z,21.22
2018-12-03T05:39:09.484Z,21.19
2018-12-03T05:40:09.475Z,21.17
2018-12-03T05:41:09.474Z,21.20
2018-12-03T05:42:09.455Z,21.20
2018-12-03T05:43:09.445Z,21.25
2018-12-03T05:44:09.435Z,21.23
2018-12-03T05:45:09.423Z,21.25
2018-12-03T05:46:09.424Z,21.28
2018-12-03T05:47:09.404Z,21.25
2018-12-03T05:48:09.396Z,21.25
2018-12-03T05:49:09.386Z,21.26
2018-12-03T05:50:09.378Z,21.30
2018-12-03T05:51:09.374Z,21.28
2018-12-03T05:52:09.364Z,21.35
2018-12-03T05:53:09.397Z,21.33
2018-12-03T05:54:09.340Z,21.30
2018-12-03T05:55:09.328Z,21.26
2018-12-03T05:56:09.320Z,21.29
2018-12-03T05:57:09.318Z,21.32
2018-12-03T05:58:09.299Z,21.26
2018-12-03T05:59:09.290Z,21.26
2018-12-03T06:00:09.281Z,21.26
2018-12-03T06:01:09.271Z,21.37
2018-12-03T06:02:09.266Z,21.28
2018-12-03T06:03:09.256Z,21.23
2018-12-03T06:04:09.238Z,21.26
2018-12-03T06:05:09.230Z,21.28
2018-12-03T06:06:09.225Z,21.26
2018-12-03T06:07:09.212Z,21.38
2018-12-03T06:08:09.209Z,21.25
2018-12-03T06:09:09.190Z,21.28
2018-12-03T06:10:09.182Z,21.30
2018-12-03T06:11:09.174Z,21.26
2018-12-03T06:12:09.168Z,21.30
2018-12-03T06:13:09.156Z,21.26
2018-12-03T06:14:09.144Z,21.25
2018-12-03T06:15:09.137Z,21.26
2018-12-03T06:16:09.121Z,21.28
2018-12-03T06:17:09.110Z,21.25
2018-12-03T06:18:09.121Z,21.32
2018-12-03T06:19:09.095Z,21.26
2018-12-03T06:20:09.090Z,21.30
2018-12-03T06:21:09.077Z,21.37
2018-12-03T06:22:09.066Z,21.35
2018-12-03T06:23:09.058Z,21.29
2018-12-03T06:24:09.055Z,21.32
2018-12-03T06:25:09.048Z,21.28
2018-12-03T06:26:09.028Z,21.29
2018-12-03T06:27:09.017Z,21.25
2018-12-03T06:28:09.015Z,21.30
2018-12-03T06:29:08.997Z,21.28
2018-12-03T06:30:08.990Z,21.26
2018-12-03T06:31:08.979Z,21.32
2018-12-03T06:32:08.970Z,21.28
2018-12-03T06:33:08.960Z,21.38
2018-12-03T06:34:08.949Z,21.29
2018-12-03T06:35:08.939Z,21.33
2018-12-03T06:36:08.927Z,21.28
2018-12-03T06:37:08.924Z,21.33
2018-12-03T06:38:08.914Z,21.30
2018-12-03T06:39:08.901Z,21.28
2018-12-03T06:40:08.892Z,21.32
2018-12-03T06:41:08.889Z,21.32
2018-12-03T06:42:08.871Z,21.30
2018-12-03T06:43:08.867Z,21.33
2018-12-03T06:44:08.857Z,21.29
2018-12-03T06:45:08.848Z,21.38
2018-12-03T06:46:08.836Z,21.29
2018-12-03T06:47:08.822Z,21.26
2018-12-03T06:48:08.818Z,21.35
2018-12-03T06:49:08.805Z,21.33
2018-12-03T06:50:08.802Z,21.30
2018-12-03T06:51:08.786Z,21.32
2018-12-03T06:52:08.777Z,21.28
2018-12-03T06:53:08.768Z,21.33
2018-12-03T06:54:08.759Z,21.30
2018-12-03T06:55:08.747Z,21.40
2018-12-03T06:56:08.744Z,21.32
2018-12-03T06:57:08.724Z,21.29
2018-12-03T06:58:08.720Z,21.33
2018-12-03T06:59:08.716Z,21.38
2018-12-03T07:00:08.700Z,21.26
2018-12-03T07:01:08.691Z,21.33
2018-12-03T07:02:08.682Z,21.29
2018-12-03T07:03:08.670Z,21.25
2018-12-03T07:04:08.668Z,21.23
2018-12-03T07:05:08.652Z,21.37
2018-12-03T07:06:08.643Z,21.33
2018-12-03T07:07:08.636Z,21.32
2018-12-03T07:08:08.630Z,21.26
2018-12-03T07:09:08.611Z,21.26
2018-12-03T07:10:08.608Z,21.23
2018-12-03T07:11:08.591Z,21.23
2018-12-03T07:12:08.584Z,21.28
2018-12-03T07:13:08.574Z,21.35
2018-12-03T07:14:08.562Z,21.33
2018-12-03T07:15:08.559Z,21.22
2018-12-03T07:16:08.545Z,21.26
2018-12-03T07:17:08.532Z,21.38
2018-12-03T07:18:08.526Z,21.33
2018-12-03T07:19:08.517Z,21.20
2018-12-03T07:20:08.510Z,21.40
2018-12-03T07:21:08.508Z,21.28
2018-12-03T07:22:08.492Z,21.30
2018-12-03T07:23:08.479Z,21.26
2018-12-03T07:24:08.467Z,21.28
2018-12-03T07:25:08.457Z,21.23
2018-12-03T07:26:08.448Z,21.28
2018-12-03T07:27:08.437Z,21.26
2018-12-03T07:28:08.431Z,21.33
2018-12-03T07:29:08.420Z,21.37
2018-12-03T07:30:08.417Z,21.37
2018-12-03T07:31:08.402Z,21.35
2018-12-03T07:32:08.393Z,21.37
2018-12-03T07:33:08.381Z,21.40
2018-12-03T07:34:08.380Z,21.30
2018-12-03T07:35:08.361Z,21.32
2018-12-03T07:36:08.351Z,21.38
2018-12-03T07:37:08.341Z,21.40
2018-12-03T07:38:08.326Z,21.35
2018-12-03T07:39:08.321Z,21.41
2018-12-03T07:40:08.320Z,21.35
2018-12-03T07:41:08.303Z,21.43
2018-12-03T07:42:08.297Z,21.43
2018-12-03T07:43:08.286Z,21.41
2018-12-03T07:44:08.276Z,21.35
2018-12-03T07:45:08.265Z,21.40
2018-12-03T07:46:08.256Z,21.41
2018-12-03T07:47:08.246Z,21.40
2018-12-03T07:48:08.232Z,21.37
2018-12-03T07:49:08.222Z,21.41
2018-12-03T07:50:08.216Z,21.40
2018-12-03T07:51:08.214Z,21.44
2018-12-03T07:52:08.199Z,21.33
2018-12-03T07:53:08.187Z,21.35
2018-12-03T07:54:08.178Z,21.29
2018-12-03T07:55:08.172Z,21.33
2018-12-03T07:56:08.166Z,21.44
2018-12-03T07:57:08.154Z,21.26
2018-12-03T07:58:08.139Z,21.41
2018-12-03T07:59:08.130Z,21.41
2018-12-03T08:00:08.121Z,21.29
2018-12-03T08:01:08.125Z,21.29
2018-12-03T08:02:08.099Z,21.26
2018-12-03T08:03:08.143Z,21.35
2018-12-03T08:04:08.082Z,21.33
2018-12-03T08:05:08.070Z,21.43
2018-12-03T08:06:08.069Z,21.45
2018-12-03T08:07:08.056Z,21.47
2018-12-03T08:08:08.046Z,21.35
2018-12-03T08:09:08.033Z,21.38
2018-12-03T08:10:08.022Z,21.33
2018-12-03T08:11:08.020Z,21.41
2018-12-03T08:12:08.007Z,21.37
2018-12-03T08:13:07.996Z,21.43
2018-12-03T08:14:07.991Z,21.38
2018-12-03T08:15:07.982Z,21.43
2018-12-03T08:16:07.965Z,21.35
2018-12-03T08:17:07.961Z,21.41
2018-12-03T08:18:07.945Z,21.35
2018-12-03T08:19:07.940Z,21.40
2018-12-03T08:20:07.928Z,21.43
2018-12-03T08:21:07.918Z,21.43
2018-12-03T08:22:07.907Z,21.45
2018-12-03T08:23:07.897Z,21.33
2018-12-03T08:24:07.888Z,21.50
2018-12-03T08:25:07.881Z,21.44
2018-12-03T08:26:07.869Z,21.40
2018-12-03T08:27:07.869Z,21.37
2018-12-03T08:28:07.850Z,21.43
2018-12-03T08:29:07.841Z,21.43
2018-12-03T08:30:07.834Z,21.44
2018-12-03T08:31:07.821Z,21.41
2018-12-03T08:32:07.815Z,21.44
2018-12-03T08:33:07.806Z,21.41
2018-12-03T08:34:07.793Z,21.37
2018-12-03T08:35:07.788Z,21.47
2018-12-03T08:36:07.772Z,21.44
2018-12-03T08:37:07.765Z,21.44
2018-12-03T08:38:07.755Z,21.44
2018-12-03T08:39:07.745Z,21.43
2018-12-03T08:40:07.740Z,21.44
2018-12-03T08:41:07.726Z,21.40
2018-12-03T08:42:07.716Z,21.45
2018-12-03T08:43:07.703Z,21.40
2018-12-03T08:44:07.696Z,21.41
2018-12-03T08:45:07.689Z,21.41
2018-12-03T08:46:07.677Z,21.44
2018-12-03T08:47:07.670Z,21.44
2018-12-03T08:48:07.722Z,21.41
2018-12-03T08:49:07.649Z,21.38
2018-12-03T08:50:07.643Z,21.37
2018-12-03T08:51:07.630Z,21.38
2018-12-03T08:52:07.624Z,21.41
2018-12-03T08:53:07.611Z,21.45
2018-12-03T08:54:07.598Z,21.41
2018-12-03T08:55:07.593Z,21.43
2018-12-03T08:56:07.579Z,21.40
2018-12-03T08:57:07.575Z,21.44
2018-12-03T08:58:07.568Z,21.38
2018-12-03T08:59:07.558Z,21.40
2018-12-03T09:00:07.542Z,21.37
2018-12-03T09:01:07.533Z,21.45
2018-12-03T09:02:07.522Z,21.37
2018-12-03T09:03:07.527Z,21.43
2018-12-03T09:04:07.508Z,21.35
2018-12-03T09:05:07.496Z,21.44
2018-12-03T09:06:07.481Z,21.38
2018-12-03T09:07:07.476Z,21.45
2018-12-03T09:08:07.467Z,21.35
2018-12-03T09:09:07.457Z,21.45
2018-12-03T09:10:07.442Z,21.40
2018-12-03T09:11:07.438Z,21.43
2018-12-03T09:12:07.434Z,21.44
2018-12-03T09:13:07.419Z,21.35
2018-12-03T09:14:07.407Z,21.43
2018-12-03T09:15:07.398Z,21.37
2018-12-03T09:16:07.389Z,21.43
2018-12-03T09:17:07.387Z,21.44
2018-12-03T09:18:07.373Z,21.41
2018-12-03T09:19:07.360Z,21.44
2018-12-03T09:20:07.345Z,21.38
2018-12-03T09:21:07.341Z,21.44
2018-12-03T09:22:07.335Z,21.35
2018-12-03T09:23:07.326Z,21.43
2018-12-03T09:24:07.313Z,21.38
2018-12-03T09:25:07.300Z,21.51
2018-12-03T09:26:07.291Z,21.43
2018-12-03T09:27:07.292Z,21.44
2018-12-03T09:28:07.274Z,21.45
2018-12-03T09:29:07.264Z,21.38
2018-12-03T09:30:07.253Z,21.44
2018-12-03T09:31:07.247Z,21.38
2018-12-03T09:32:07.244Z,21.44
2018-12-03T09:33:07.224Z,21.44
2018-12-03T09:34:07.214Z,21.38
2018-12-03T09:35:07.208Z,21.48
2018-12-03T09:36:07.203Z,21.41
2018-12-03T09:37:07.193Z,21.41
2018-12-03T09:38:07.175Z,21.35
2018-12-03T09:39:07.168Z,21.35
2018-12-03T09:40:07.167Z,21.41
2018-12-03T09:41:07.150Z,21.41
2018-12-03T09:42:07.140Z,21.41
2018-12-03T09:43:07.129Z,21.51
2018-12-03T09:44:07.120Z,21.33
2018-12-03T09:45:07.110Z,21.38
2018-12-03T09:46:07.121Z,21.38
2018-12-03T09:47:07.091Z,21.43
2018-12-03T09:48:07.079Z,21.45
2018-12-03T09:49:07.072Z,21.50
2018-12-03T09:50:07.061Z,21.51
2018-12-03T09:51:07.053Z,21.50
2018-12-03T09:52:07.043Z,21.51
2018-12-03T09:53:07.031Z,21.53
2018-12-03T09:54:07.021Z,21.47
2018-12-03T09:55:07.012Z,21.53
2018-12-03T09:56:07.005Z,21.48
2018-12-03T09:57:06.993Z,21.51
2018-12-03T09:58:06.983Z,21.50
2018-12-03T09:59:06.978Z,21.41
2018-12-03T10:00:06.967Z,21.50
2018-12-03T10:01:06.953Z,21.48
2018-12-03T10:02:06.946Z,21.41
2018-12-03T10:03:06.936Z,21.50
2018-12-03T10:04:06.925Z,21.51
2018-12-03T10:05:06.916Z,21.41
2018-12-03T10:06:06.906Z,21.41
2018-12-03T10:07:06.899Z,21.43
2018-12-03T10:08:06.887Z,21.45
2018-12-03T10:09:06.877Z,21.47
2018-12-03T10:10:06.873Z,21.50
2018-12-03T10:11:06.857Z,21.47
2018-12-03T10:12:06.851Z,21.50
2018-12-03T10:13:06.839Z,21.38
2018-12-03T10:14:06.835Z,21.33
2018-12-03T10:15:06.819Z,21.38
2018-12-03T10:16:06.809Z,21.50
2018-12-03T10:17:06.802Z,21.48
2018-12-03T10:18:06.790Z,21.41
2018-12-03T10:19:06.786Z,21.40
2018-12-03T10:20:06.775Z,21.43
2018-12-03T10:21:06.763Z,21.47
2018-12-03T10:22:06.757Z,21.47
2018-12-03T10:23:08.045Z,21.45
2018-12-03T10:24:06.737Z,21.47
2018-12-03T10:25:06.727Z,21.50
2018-12-03T10:26:06.714Z,21.48
2018-12-03T10:27:06.706Z,21.38
2018-12-03T10:28:06.695Z,21.47
2018-12-03T10:29:06.694Z,21.40
2018-12-03T10:30:06.680Z,21.38
2018-12-03T10:31:06.668Z,21.43
2018-12-03T10:32:06.659Z,21.32
2018-12-03T10:33:06.647Z,21.28
2018-12-03T10:34:06.638Z,21.14
2018-12-03T10:35:06.627Z,21.01
2018-12-03T10:36:06.618Z,20.96
2018-12-03T10:37:06.610Z,21.01
2018-12-03T10:38:06.603Z,20.86
2018-12-03T10:39:06.592Z,20.98
2018-12-03T10:40:06.581Z,20.93
2018-12-03T10:41:06.573Z,20.98
2018-12-03T10:42:06.562Z,20.96
2018-12-03T10:43:06.548Z,21.07
2018-12-03T10:44:06.546Z,21.03
2018-12-03T10:45:06.529Z,21.04
2018-12-03T10:46:06.520Z,20.98
2018-12-03T10:47:06.523Z,21.01
2018-12-03T10:48:06.503Z,20.98
2018-12-03T10:49:06.495Z,21.01
2018-12-03T10:50:06.494Z,20.98
2018-12-03T10:51:06.477Z,21.04
2018-12-03T10:52:06.463Z,21.05
2018-12-03T10:53:06.452Z,21.05
2018-12-03T10:54:06.451Z,21.10
2018-12-03T10:55:06.438Z,21.00
2018-12-03T10:56:06.426Z,21.05
2018-12-03T10:57:06.416Z,21.11
2018-12-03T10:58:06.404Z,21.11
2018-12-03T10:59:06.395Z,21.14
2018-12-03T11:00:06.396Z,21.15
2018-12-03T11:01:06.380Z,21.19
2018-12-03T11:02:06.368Z,21.14
2018-12-03T11:03:06.355Z,21.13
2018-12-03T11:04:06.348Z,21.19
2018-12-03T11:05:06.344Z,21.23
2018-12-03T11:06:06.327Z,21.23
2018-12-03T11:07:06.320Z,21.22
2018-12-03T11:08:06.313Z,21.28
2018-12-03T11:09:06.308Z,21.26
2018-12-03T11:10:06.294Z,21.29
2018-12-03T11:11:06.284Z,21.28
2018-12-03T11:12:06.270Z,21.29
2018-12-03T11:13:06.258Z,21.30
2018-12-03T11:14:06.248Z,21.30
2018-12-03T11:15:06.244Z,21.33
2018-12-03T11:16:06.233Z,21.32
2018-12-03T11:17:06.223Z,21.32
2018-12-03T11:18:06.212Z,21.26
2018-12-03T11:19:06.203Z,21.29
2018-12-03T11:20:06.190Z,21.29
2018-12-03T11:21:06.188Z,21.38
2018-12-03T11:22:06.174Z,21.43
2018-12-03T11:23:06.164Z,21.38
2018-12-03T11:24:06.155Z,21.41
2018-12-03T11:25:06.146Z,21.33
2018-12-03T11:26:06.175Z,21.37
2018-12-03T11:27:06.125Z,21.45
2018-12-03T11:28:06.117Z,21.33
2018-12-03T11:29:06.104Z,21.37
2018-12-03T11:30:06.092Z,21.35
2018-12-03T11:31:06.093Z,21.38
2018-12-03T11:32:06.076Z,21.29
2018-12-03T11:33:06.067Z,21.26
2018-12-03T11:34:06.057Z,21.29
2018-12-03T11:35:06.071Z,21.30
2018-12-03T11:36:06.039Z,21.26
2018-12-03T11:37:06.028Z,21.35
2018-12-03T11:38:06.018Z,21.28
2018-12-03T11:39:06.011Z,21.30
2018-12-03T11:40:06.008Z,21.30
2018-12-03T11:41:05.989Z,21.32
2018-12-03T11:42:05.982Z,21.29
2018-12-03T11:43:05.969Z,21.30
2018-12-03T11:44:05.971Z,21.37
2018-12-03T11:45:05.949Z,21.37
2018-12-03T11:46:05.943Z,21.44
2018-12-03T11:47:05.935Z,21.26
2018-12-03T11:48:05.918Z,21.33
2018-12-03T11:49:05.911Z,21.37
2018-12-03T11:50:05.902Z,21.30
2018-12-03T11:51:05.901Z,21.47
2018-12-03T11:52:05.886Z,21.44
2018-12-03T11:53:05.875Z,21.43
2018-12-03T11:54:05.865Z,21.32
2018-12-03T11:55:05.854Z,21.28
2018-12-03T11:56:05.846Z,21.32
2018-12-03T11:57:05.834Z,21.26
2018-12-03T11:58:05.825Z,21.25
2018-12-03T11:59:05.816Z,21.26
2018-12-03T12:00:05.806Z,21.33
2018-12-03T12:01:05.796Z,21.30
2018-12-03T12:02:05.786Z,21.26
2018-12-03T12:03:05.775Z,21.33
2018-12-03T12:04:05.769Z,21.44
2018-12-03T12:05:05.757Z,21.33
2018-12-03T12:06:05.746Z,21.33
2018-12-03T12:07:05.738Z,21.38
2018-12-03T12:08:05.728Z,21.38
2018-12-03T12:09:05.721Z,21.44
2018-12-03T12:10:05.710Z,21.41
2018-12-03T12:11:05.702Z,21.44
2018-12-03T12:12:05.692Z,21.41
2018-12-03T12:13:05.685Z,21.44
2018-12-03T12:14:05.679Z,21.45
2018-12-03T12:15:05.662Z,21.48
2018-12-03T12:16:05.652Z,21.40
2018-12-03T12:17:05.643Z,21.48
2018-12-03T12:18:05.633Z,21.45
2018-12-03T12:19:05.625Z,21.40
2018-12-03T12:20:05.614Z,21.47
2018-12-03T12:21:05.604Z,21.45
2018-12-03T12:22:05.594Z,21.41
2018-12-03T12:23:05.583Z,21.43
2018-12-03T12:24:05.582Z,21.37
2018-12-03T12:25:05.563Z,21.43
2018-12-03T12:26:05.556Z,21.41
2018-12-03T12:27:05.544Z,21.45
2018-12-03T12:28:05.536Z,21.41
2018-12-03T12:29:05.534Z,21.41
2018-12-03T12:30:05.516Z,21.45
2018-12-03T12:31:05.509Z,21.33
2018-12-03T12:32:05.499Z,21.37
2018-12-03T12:33:05.485Z,21.41
2018-12-03T12:34:05.481Z,21.40
2018-12-03T12:35:05.470Z,21.43
2018-12-03T12:36:05.459Z,21.47
2018-12-03T12:37:05.445Z,21.51
2018-12-03T12:38:05.441Z,21.44
2018-12-03T12:39:05.433Z,21.37
2018-12-03T12:40:05.422Z,21.40
2018-12-03T12:41:05.411Z,21.35
2018-12-03T12:42:05.404Z,21.41
2018-12-03T12:43:05.392Z,21.40
2018-12-03T12:44:05.390Z,21.38
2018-12-03T12:45:05.372Z,21.43
2018-12-03T12:46:05.363Z,21.38
2018-12-03T12:47:05.354Z,21.40
2018-12-03T12:48:05.350Z,21.41
2018-12-03T12:49:05.334Z,21.38
2018-12-03T12:50:05.326Z,21.38
2018-12-03T12:51:05.315Z,21.44
2018-12-03T12:52:05.309Z,21.33